Time;durP1;ratioP1;P1;durP2;ratioP2;P2;SDS_P1;SDS_P2;PMS_P1;PMS_P2;Temp;Humidity;BMP_temperature;BMP_pressure;BME280_temperature;BME280_humidity;BME280_pressure;Samples;Min_cycle;Max_cycle;Signal;HPM_P1;HPM_P2
2022/06/06 00:01:50;;;;;;;2.08;1.98;;;21.00;58.80;;;;;;5016287;28;43778;-64
2022/06/06 00:04:19;;;;;;;2.20;2.10;;;21.00;58.80;;;;;;5053567;28;43433;-63
2022/06/06 00:06:47;;;;;;;2.05;1.95;;;21.00;58.80;;;;;;5014465;28;43470;-64
2022/06/06 00:09:16;;;;;;;2.25;2.15;;;21.00;58.80;;;;;;5015578;28;43502;-64
2022/06/06 00:11:44;;;;;;;2.17;2.00;;;20.90;58.80;;;;;;5015286;28;44121;-64
2022/06/06 00:14:14;;;;;;;2.28;2.17;;;20.90;58.70;;;;;;5020591;28;43965;-62
2022/06/06 00:16:41;;;;;;;2.28;2.10;;;20.90;58.70;;;;;;5013831;28;44058;-62
2022/06/06 00:19:10;;;;;;;1.90;1.80;;;20.90;58.80;;;;;;5013596;28;43510;-63
2022/06/06 00:21:40;;;;;;;2.05;1.95;;;21.00;58.80;;;;;;5015525;28;43811;-63
2022/06/06 00:24:08;;;;;;;2.25;2.05;;;20.90;58.80;;;;;;5016446;28;43756;-63
2022/06/06 00:26:36;;;;;;;2.00;1.90;;;21.00;58.80;;;;;;5007992;28;43475;-62
2022/06/06 00:29:05;;;;;;;1.80;1.70;;;20.90;58.80;;;;;;5014342;28;43665;-63
2022/06/06 00:37:11;;;;;;;2.53;2.28;;;20.90;58.90;;;;;;5017112;28;43447;-63
2022/06/06 00:39:39;;;;;;;2.22;2.13;;;20.90;58.90;;;;;;5016217;28;43528;-63
2022/06/06 00:42:23;;;;;;;2.00;1.90;;;20.90;58.90;;;;;;5024513;28;44051;-64
2022/06/06 00:45:34;;;;;;;2.17;1.98;;;20.90;58.80;;;;;;5013868;28;43426;-63
2022/06/06 00:48:17;;;;;;;1.90;1.80;;;20.90;58.90;;;;;;4930165;28;43511;-63
2022/06/06 00:50:55;;;;;;;2.17;2.00;;;20.90;58.90;;;;;;4943049;28;43446;-64
2022/06/06 00:53:33;;;;;;;2.08;1.95;;;20.90;58.90;;;;;;4979037;28;44089;-63
2022/06/06 00:56:07;;;;;;;2.45;2.25;;;20.90;59.00;;;;;;5013999;28;43530;-64
2022/06/06 00:58:36;;;;;;;2.45;2.25;;;20.90;58.90;;;;;;5021992;28;43566;-63
2022/06/06 01:01:04;;;;;;;2.45;2.25;;;20.90;58.90;;;;;;5021937;28;43521;-63
2022/06/06 01:03:31;;;;;;;2.08;1.90;;;20.90;58.90;;;;;;5010234;28;44378;-63
2022/06/06 01:06:00;;;;;;;2.00;1.90;;;20.90;58.90;;;;;;5016774;28;43458;-63
2022/06/06 01:08:28;;;;;;;2.10;2.00;;;20.90;58.90;;;;;;5022323;28;43967;-63
2022/06/06 01:10:57;;;;;;;2.03;1.92;;;20.90;58.90;;;;;;5022831;28;43573;-63
2022/06/06 01:13:25;;;;;;;2.22;2.03;;;20.80;58.90;;;;;;5010542;28;43987;-63
2022/06/06 01:16:05;;;;;;;2.00;1.90;;;20.90;59.00;;;;;;5018265;28;43778;-63
2022/06/06 01:18:32;;;;;;;2.55;2.35;;;20.80;59.60;;;;;;5022444;28;43495;-63
2022/06/06 01:21:02;;;;;;;2.42;2.22;;;20.80;59.00;;;;;;5021020;28;43565;-62
2022/06/06 01:23:47;;;;;;;2.38;2.17;;;20.80;58.90;;;;;;5011128;28;45769;-63
2022/06/06 01:26:53;;;;;;;1.73;1.63;;;20.80;59.00;;;;;;5011869;28;43475;-63
2022/06/06 01:29:32;;;;;;;2.25;2.15;;;20.80;58.90;;;;;;5021794;28;43568;-63
2022/06/06 01:32:10;;;;;;;2.38;1.98;;;20.80;58.90;;;;;;5025024;28;43429;-63
2022/06/06 01:34:41;;;;;;;2.30;2.10;;;20.80;58.90;;;;;;5020563;28;43811;-63
2022/06/06 01:37:23;;;;;;;2.20;2.00;;;20.80;58.90;;;;;;5016592;28;43506;-63
2022/06/06 01:39:50;;;;;;;2.00;1.90;;;20.80;59.00;;;;;;5023363;28;43387;-63
2022/06/06 01:42:34;;;;;;;2.20;2.00;;;20.80;59.00;;;;;;5013269;28;43457;-63
2022/06/06 01:45:10;;;;;;;2.00;1.90;;;20.80;59.60;;;;;;5045029;28;45668;-63
2022/06/06 01:47:46;;;;;;;2.05;1.95;;;20.80;59.10;;;;;;5023169;28;43459;-63
2022/06/06 01:50:13;;;;;;;1.90;1.80;;;20.80;59.00;;;;;;5020389;28;43566;-63
2022/06/06 01:53:02;;;;;;;2.10;2.00;;;20.80;59.10;;;;;;5015407;28;43504;-63
2022/06/06 01:55:32;;;;;;;2.22;2.13;;;20.80;59.10;;;;;;5022398;28;43828;-63
2022/06/06 01:58:05;;;;;;;2.10;2.00;;;20.80;59.10;;;;;;5019885;28;44044;-63
2022/06/06 02:00:36;;;;;;;2.20;2.00;;;20.70;59.10;;;;;;5010002;28;43548;-63
2022/06/06 02:03:04;;;;;;;1.95;1.85;;;20.70;59.10;;;;;;5012973;28;43454;-63
2022/06/06 02:05:32;;;;;;;2.28;2.10;;;20.70;59.10;;;;;;5023406;28;44013;-63
2022/06/06 02:07:59;;;;;;;2.22;2.13;;;20.70;59.10;;;;;;5009485;28;43530;-64
2022/06/06 02:10:27;;;;;;;1.88;1.77;;;20.70;59.10;;;;;;5015601;28;43419;-63
2022/06/06 02:12:55;;;;;;;2.35;2.15;;;20.70;59.00;;;;;;5021476;28;43406;-64
2022/06/06 02:15:25;;;;;;;2.10;2.00;;;20.70;59.10;;;;;;5023014;28;43679;-63
2022/06/06 02:17:54;;;;;;;2.00;1.90;;;20.70;59.10;;;;;;5009784;28;43755;-63
2022/06/06 02:20:25;;;;;;;1.90;1.80;;;20.70;59.10;;;;;;5013899;28;43499;-63
2022/06/06 02:22:53;;;;;;;2.38;2.17;;;20.70;59.20;;;;;;5021873;28;43390;-63
2022/06/06 02:25:22;;;;;;;2.33;1.90;;;20.70;59.20;;;;;;5023612;28;44754;-62
2022/06/06 02:27:50;;;;;;;2.30;2.10;;;20.70;59.20;;;;;;5009250;28;44092;-63
2022/06/06 02:30:23;;;;;;;2.40;2.20;;;20.70;59.20;;;;;;5016731;28;43467;-64
2022/06/06 02:32:50;;;;;;;2.72;1.90;;;20.70;59.20;;;;;;5022643;28;43483;-62
2022/06/06 02:35:22;;;;;;;2.90;2.35;;;20.70;59.20;;;;;;5010332;28;44857;-63
2022/06/06 02:37:51;;;;;;;2.28;2.08;;;20.70;59.30;;;;;;5009478;28;43529;-64
2022/06/06 02:40:20;;;;;;;2.40;2.20;;;20.70;59.30;;;;;;5019843;28;43393;-63
2022/06/06 02:42:48;;;;;;;2.05;1.95;;;20.70;59.30;;;;;;5032466;28;43555;-63
2022/06/06 02:45:17;;;;;;;1.90;1.80;;;20.60;60.00;;;;;;5009962;28;43871;-63
2022/06/06 02:47:46;;;;;;;2.60;1.92;;;20.70;59.40;;;;;;5013197;28;43486;-64
2022/06/06 02:50:16;;;;;;;2.58;1.88;;;20.70;59.40;;;;;;5021405;28;43465;-65
2022/06/06 02:52:44;;;;;;;2.25;2.05;;;20.70;59.30;;;;;;5011258;28;43543;-63
2022/06/06 02:55:13;;;;;;;1.90;1.80;;;20.60;59.30;;;;;;5009988;28;44747;-63
2022/06/06 02:57:50;;;;;;;1.90;1.80;;;20.70;59.40;;;;;;5015047;28;43672;-64
2022/06/06 03:00:28;;;;;;;2.22;2.03;;;20.70;59.40;;;;;;5021896;28;43486;-63
2022/06/06 03:02:55;;;;;;;2.42;1.92;;;20.60;59.30;;;;;;5008722;28;43466;-64
2022/06/06 03:05:32;;;;;;;1.95;1.77;;;20.70;59.40;;;;;;5010109;28;43844;-64
2022/06/06 03:08:11;;;;;;;2.10;1.90;;;20.60;59.40;;;;;;5012261;28;43776;-63
2022/06/06 03:10:39;;;;;;;1.98;1.77;;;20.70;59.50;;;;;;5021852;28;43490;-63
2022/06/06 03:13:45;;;;;;;2.17;2.03;;;20.60;59.40;;;;;;5023732;28;43490;-64
2022/06/06 03:22:27;;;;;;;1.60;1.50;;;20.60;59.40;;;;;;5013123;28;43603;-63
2022/06/06 03:25:12;;;;;;;1.77;1.67;;;20.60;59.40;;;;;;5012209;28;44003;-63
2022/06/06 03:27:56;;;;;;;1.65;1.45;;;20.60;59.40;;;;;;5013802;28;44059;-63
2022/06/06 03:30:38;;;;;;;1.70;1.60;;;20.60;59.40;;;;;;5009295;28;43460;-63
2022/06/06 03:33:38;;;;;;;2.60;1.60;;;20.60;59.50;;;;;;5010795;28;43419;-63
2022/06/06 03:36:28;;;;;;;2.03;1.60;;;20.60;59.40;;;;;;5011306;28;43501;-63
2022/06/06 03:39:17;;;;;;;1.73;1.63;;;20.60;59.40;;;;;;5005623;28;44767;-63
2022/06/06 03:41:54;;;;;;;1.50;1.40;;;20.50;59.30;;;;;;5014623;28;43751;-63
2022/06/06 03:44:39;;;;;;;1.80;1.70;;;20.60;59.40;;;;;;5013675;28;43474;-63
2022/06/06 03:47:26;;;;;;;1.90;1.80;;;20.50;60.00;;;;;;5013441;28;43522;-63
2022/06/06 03:50:15;;;;;;;1.70;1.60;;;20.50;59.30;;;;;;5011210;28;44910;-63
2022/06/06 03:52:47;;;;;;;1.75;1.65;;;20.50;59.30;;;;;;5013210;28;43648;-63
2022/06/06 03:55:45;;;;;;;1.95;1.67;;;20.50;59.40;;;;;;5019027;28;43520;-63
2022/06/06 03:58:17;;;;;;;1.50;1.40;;;20.50;59.40;;;;;;5015768;28;43467;-63
2022/06/06 04:00:46;;;;;;;1.80;1.70;;;20.50;59.40;;;;;;5009745;28;43770;-63
2022/06/06 04:03:16;;;;;;;1.77;1.67;;;20.50;59.30;;;;;;5020857;28;43444;-63
2022/06/06 04:05:44;;;;;;;1.85;1.75;;;20.50;59.30;;;;;;5024129;28;43556;-63
2022/06/06 04:08:11;;;;;;;1.75;1.65;;;20.50;59.30;;;;;;5011276;28;43547;-63
2022/06/06 04:11:03;;;;;;;1.65;1.52;;;20.50;59.30;;;;;;5017058;28;43818;-63
2022/06/06 04:13:43;;;;;;;1.85;1.70;;;20.50;59.40;;;;;;5015714;28;44045;-62
2022/06/06 04:16:14;;;;;;;2.05;1.75;;;20.50;59.40;;;;;;5008991;28;43428;-63
2022/06/06 04:19:00;;;;;;;1.70;1.60;;;20.50;59.30;;;;;;5013912;28;43395;-63
2022/06/06 04:21:49;;;;;;;1.58;1.48;;;20.50;59.40;;;;;;5020137;28;43789;-63
2022/06/06 04:24:32;;;;;;;1.85;1.60;;;20.50;59.40;;;;;;5007958;28;43496;-63
2022/06/06 04:27:26;;;;;;;1.70;1.60;;;20.50;59.40;;;;;;5014075;28;43382;-63
2022/06/06 04:30:31;;;;;;;1.70;1.60;;;20.50;59.30;;;;;;5017142;28;43395;-63
2022/06/06 04:33:11;;;;;;;2.22;1.83;;;20.40;59.30;;;;;;5024917;28;43783;-63
2022/06/06 04:35:46;;;;;;;1.50;1.40;;;20.40;59.30;;;;;;5011157;28;43893;-62
2022/06/06 04:38:28;;;;;;;1.70;1.60;;;20.40;59.30;;;;;;5017296;28;43444;-63
2022/06/06 04:41:05;;;;;;;1.60;1.50;;;20.40;59.40;;;;;;5022718;28;43720;-64
2022/06/06 04:43:35;;;;;;;1.60;1.50;;;20.40;59.40;;;;;;5028335;28;43787;-63
2022/06/06 04:46:13;;;;;;;1.80;1.70;;;20.40;59.50;;;;;;5012619;28;43412;-63
2022/06/06 04:48:42;;;;;;;2.03;1.88;;;20.40;59.70;;;;;;5021562;28;43375;-62
2022/06/06 04:51:11;;;;;;;1.83;1.73;;;20.40;59.50;;;;;;5023867;28;43633;-63
2022/06/06 04:53:42;;;;;;;1.98;1.83;;;20.40;59.60;;;;;;5019176;28;44124;-63
2022/06/06 04:56:14;;;;;;;2.50;2.03;;;20.40;59.70;;;;;;5014575;28;43555;-63
2022/06/06 04:58:44;;;;;;;1.70;1.60;;;20.40;59.80;;;;;;5017925;28;43446;-64
2022/06/06 05:01:12;;;;;;;1.60;1.50;;;20.40;59.80;;;;;;5019601;28;43980;-63
2022/06/06 05:03:40;;;;;;;2.50;1.80;;;20.40;59.90;;;;;;5008993;28;44040;-63
2022/06/06 05:06:23;;;;;;;2.00;1.80;;;20.40;59.80;;;;;;5016281;28;43488;-63
2022/06/06 05:09:25;;;;;;;1.80;1.70;;;20.40;59.80;;;;;;5020320;28;43444;-63
2022/06/06 05:12:34;;;;;;;1.73;1.63;;;20.40;59.80;;;;;;5014216;28;43434;-63
2022/06/06 05:15:34;;;;;;;2.10;1.83;;;20.40;59.80;;;;;;4975071;28;43775;-62
2022/06/06 05:18:02;;;;;;;1.77;1.67;;;20.40;59.80;;;;;;4967402;28;43524;-62
2022/06/06 05:20:59;;;;;;;2.08;1.95;;;20.40;59.80;;;;;;5006756;28;43421;-62
2022/06/06 05:23:44;;;;;;;1.85;1.73;;;20.40;59.70;;;;;;5011195;28;43509;-63
2022/06/06 05:26:37;;;;;;;1.70;1.60;;;20.30;59.60;;;;;;5019608;28;44929;-63
2022/06/06 05:29:38;;;;;;;1.80;1.70;;;20.40;59.70;;;;;;5013020;28;43438;-62
2022/06/06 05:32:24;;;;;;;;;;;20.40;59.70;;;;;;5014990;28;43467;-63
2022/06/06 05:35:18;;;;;;;1.73;1.63;;;20.30;59.60;;;;;;5012333;28;43423;-63
2022/06/06 05:38:12;;;;;;;2.03;1.92;;;20.30;59.80;;;;;;5020461;28;44066;-63
2022/06/06 05:41:04;;;;;;;1.70;1.60;;;20.30;59.80;;;;;;5022333;28;43488;-63
2022/06/06 05:43:56;;;;;;;1.80;1.70;;;20.30;59.70;;;;;;5021683;28;43526;-63
2022/06/06 05:46:41;;;;;;;;;;;20.30;59.80;;;;;;5024128;28;43476;-62
2022/06/06 05:49:20;;;;;;;1.92;1.83;;;20.30;59.80;;;;;;5021960;28;43746;-64
2022/06/06 05:52:17;;;;;;;1.80;1.70;;;20.30;59.80;;;;;;5023462;28;43530;-63
2022/06/06 05:54:53;;;;;;;1.80;1.70;;;20.30;59.80;;;;;;5023083;28;43465;-63
2022/06/06 05:57:23;;;;;;;1.65;1.55;;;20.30;59.80;;;;;;5022664;28;43589;-63
2022/06/06 06:00:19;;;;;;;1.37;1.27;;;20.30;59.80;;;;;;5020020;28;45052;-63
2022/06/06 06:03:15;;;;;;;1.50;1.40;;;20.30;59.80;;;;;;5020030;28;43570;-63
2022/06/06 06:05:50;;;;;;;1.50;1.40;;;20.30;59.80;;;;;;5020038;28;43450;-63
2022/06/06 06:09:01;;;;;;;1.40;1.30;;;20.30;59.90;;;;;;5008047;28;43483;-63
2022/06/06 06:11:53;;;;;;;1.40;1.30;;;20.30;59.80;;;;;;5015299;28;44904;-63
2022/06/06 06:14:29;;;;;;;1.48;1.38;;;20.30;60.00;;;;;;5024141;28;43512;-63
2022/06/06 06:17:00;;;;;;;1.30;1.30;;;20.30;60.20;;;;;;5013391;28;43399;-62
2022/06/06 06:19:39;;;;;;;1.27;1.27;;;20.30;60.10;;;;;;5016326;28;43527;-62
2022/06/06 06:22:08;;;;;;;1.70;1.60;;;20.30;60.10;;;;;;5021330;28;44433;-63
2022/06/06 06:24:39;;;;;;;1.20;1.20;;;20.30;60.20;;;;;;5013118;28;43379;-62
2022/06/06 06:27:07;;;;;;;1.52;1.42;;;20.30;60.20;;;;;;5012166;28;43489;-64
2022/06/06 06:29:34;;;;;;;1.60;1.50;;;20.30;60.20;;;;;;5013302;28;43510;-62
2022/06/06 06:32:13;;;;;;;1.88;1.25;;;20.30;60.00;;;;;;5020787;28;44948;-62
2022/06/06 06:35:08;;;;;;;1.13;1.13;;;20.30;60.00;;;;;;5011820;28;43449;-63
2022/06/06 06:38:04;;;;;;;2.08;1.27;;;20.30;60.00;;;;;;5011516;28;43433;-62
2022/06/06 06:41:03;;;;;;;1.20;1.20;;;20.20;60.10;;;;;;5045730;28;43515;-63
2022/06/06 06:43:37;;;;;;;1.55;1.20;;;20.30;60.00;;;;;;5019340;28;44164;-64
2022/06/06 06:46:28;;;;;;;1.20;1.20;;;20.30;60.20;;;;;;5024772;28;43559;-63
2022/06/06 06:49:24;;;;;;;1.85;1.58;;;20.30;60.20;;;;;;5009427;28;43503;-63
2022/06/06 06:52:03;;;;;;;1.60;1.50;;;20.20;60.20;;;;;;5011135;28;43470;-63
2022/06/06 06:54:31;;;;;;;1.27;1.17;;;20.20;60.80;;;;;;5013290;28;43800;-63
2022/06/06 06:57:04;;;;;;;1.50;1.40;;;20.30;60.20;;;;;;5013992;28;43559;-63
2022/06/06 06:59:57;;;;;;;1.13;1.13;;;20.20;60.10;;;;;;5019089;28;43538;-63
2022/06/06 07:08:33;;;;;;;1.95;1.50;;;20.20;60.00;;;;;;5014277;28;43491;-63
2022/06/06 07:11:18;;;;;;;1.50;1.40;;;20.20;60.10;;;;;;5020692;28;43625;-63
2022/06/06 07:14:09;;;;;;;1.35;1.35;;;20.20;61.20;;;;;;5018725;28;43509;-63
2022/06/06 07:16:39;;;;;;;1.17;1.17;;;20.20;60.00;;;;;;5015769;28;44390;-62
2022/06/06 07:19:19;;;;;;;1.53;1.40;;;20.20;60.20;;;;;;5021252;28;43720;-62
2022/06/06 07:21:49;;;;;;;2.03;1.58;;;20.20;60.10;;;;;;5011802;28;43426;-63
2022/06/06 07:24:20;;;;;;;1.63;1.38;;;20.20;60.00;;;;;;5015064;28;43574;-63
2022/06/06 07:26:48;;;;;;;;;;;20.20;60.10;;;;;;5015505;28;44059;-63
2022/06/06 07:29:18;;;;;;;1.50;1.40;;;20.20;60.10;;;;;;5023493;28;43390;-62
2022/06/06 07:31:53;;;;;;;1.10;1.10;;;20.20;60.10;;;;;;5023244;28;43490;-63
2022/06/06 07:35:11;;;;;;;1.38;1.27;;;20.20;60.00;;;;;;5013968;28;43457;-63
2022/06/06 07:38:07;;;;;;;1.20;1.10;;;20.30;60.00;;;;;;5011630;28;44954;-63
2022/06/06 07:40:44;;;;;;;1.20;1.20;;;20.20;60.00;;;;;;5009734;28;43801;-62
2022/06/06 07:43:14;;;;;;;1.50;1.40;;;20.30;60.00;;;;;;5020303;28;43455;-62
2022/06/06 07:45:52;;;;;;;1.50;1.40;;;20.30;59.90;;;;;;5019345;28;43435;-62
2022/06/06 07:48:36;;;;;;;1.23;1.10;;;20.30;60.00;;;;;;5019616;28;43661;-62
2022/06/06 07:51:26;;;;;;;1.40;1.30;;;20.30;59.90;;;;;;5013973;28;43547;-63
2022/06/06 07:54:27;;;;;;;1.40;1.30;;;20.30;60.00;;;;;;5016689;28;43537;-63
2022/06/06 07:57:22;;;;;;;1.27;1.17;;;20.30;60.00;;;;;;5015728;28;43657;-63
2022/06/06 07:59:58;;;;;;;1.42;1.33;;;20.30;60.00;;;;;;5010971;28;43794;-62
2022/06/06 08:02:47;;;;;;;1.10;1.10;;;20.30;60.00;;;;;;5013267;28;43444;-62
2022/06/06 08:05:46;;;;;;;1.13;1.13;;;20.30;60.00;;;;;;5021483;28;43462;-63
2022/06/06 08:08:35;;;;;;;1.13;1.13;;;20.30;60.10;;;;;;5006916;28;43575;-63
2022/06/06 08:11:13;;;;;;;1.23;1.15;;;20.30;60.10;;;;;;5015461;28;43864;-62
2022/06/06 08:13:57;;;;;;;1.35;1.25;;;20.30;60.20;;;;;;5015234;28;43499;-62
2022/06/06 08:16:45;;;;;;;1.83;1.63;;;20.30;60.10;;;;;;5022264;28;43472;-62
2022/06/06 08:19:29;;;;;;;1.38;1.27;;;20.30;60.10;;;;;;5014195;28;43594;-63
2022/06/06 08:21:58;;;;;;;1.20;1.17;;;20.30;60.10;;;;;;5017785;28;43879;-62
2022/06/06 08:24:32;;;;;;;1.60;1.30;;;20.30;60.00;;;;;;5021876;28;43467;-62
2022/06/06 08:27:20;;;;;;;1.10;1.10;;;20.30;60.10;;;;;;5018427;28;43421;-62
2022/06/06 08:29:49;;;;;;;1.30;1.30;;;20.30;60.10;;;;;;5013261;28;43502;-62
2022/06/06 08:32:17;;;;;;;1.40;1.30;;;20.30;60.00;;;;;;5018968;28;44846;-63
2022/06/06 08:34:45;;;;;;;1.40;1.30;;;20.30;60.00;;;;;;5020266;28;43477;-62
2022/06/06 08:37:46;;;;;;;1.30;1.30;;;20.30;60.20;;;;;;5016087;28;43575;-63
2022/06/06 08:40:41;;;;;;;1.10;1.10;;;20.30;60.10;;;;;;5013598;28;43559;-62
2022/06/06 08:43:17;;;;;;;1.75;1.00;;;20.40;59.80;;;;;;5030080;28;44680;-62
2022/06/06 08:45:52;;;;;;;2.83;1.50;;;20.40;59.90;;;;;;5011617;28;43433;-62
2022/06/06 08:48:38;;;;;;;1.20;1.10;;;20.40;60.00;;;;;;5017872;28;43422;-63
2022/06/06 08:51:38;;;;;;;1.50;1.40;;;20.40;59.90;;;;;;5021196;28;43482;-62
2022/06/06 08:54:42;;;;;;;1.40;1.30;;;20.40;60.00;;;;;;5015007;28;43788;-63
2022/06/06 08:57:09;;;;;;;1.20;1.20;;;20.40;60.00;;;;;;5013445;28;43469;-63
2022/06/06 09:00:19;;;;;;;1.55;1.20;;;20.40;60.00;;;;;;5020933;28;43520;-62
2022/06/06 09:03:19;;;;;;;1.30;1.30;;;20.40;59.90;;;;;;5002880;28;43533;-62
2022/06/06 09:06:24;;;;;;;1.52;1.45;;;20.40;60.00;;;;;;5015525;28;43812;-62
2022/06/06 09:09:29;;;;;;;1.40;1.30;;;20.30;59.90;;;;;;5020430;28;44130;-63
2022/06/06 09:12:34;;;;;;;1.13;1.13;;;20.30;59.90;;;;;;5022037;28;43426;-62
2022/06/06 09:15:39;;;;;;;1.42;1.33;;;20.40;60.00;;;;;;5012175;28;43478;-62
2022/06/06 09:18:47;;;;;;;1.73;1.15;;;20.30;60.00;;;;;;5019759;28;45151;-63
2022/06/06 09:21:42;;;;;;;1.30;1.30;;;20.30;59.90;;;;;;5009553;28;43431;-62
2022/06/06 09:24:46;;;;;;;1.65;1.20;;;20.40;60.00;;;;;;5016775;28;43458;-62
2022/06/06 09:27:51;;;;;;;1.50;1.40;;;20.40;60.00;;;;;;5020362;28;43559;-63
2022/06/06 09:31:00;;;;;;;2.80;1.40;;;20.30;59.90;;;;;;5023207;28;45042;-63
2022/06/06 09:33:46;;;;;;;1.15;1.13;;;20.40;60.10;;;;;;5013431;28;43456;-63
2022/06/06 09:36:33;;;;;;;1.35;1.20;;;20.40;60.10;;;;;;5018753;28;43503;-63
2022/06/06 09:39:17;;;;;;;1.40;1.30;;;20.40;60.00;;;;;;5006801;28;43527;-63
2022/06/06 09:42:03;;;;;;;1.92;1.40;;;20.40;60.10;;;;;;5016171;28;43796;-62
2022/06/06 09:45:09;;;;;;;1.70;1.30;;;20.40;60.00;;;;;;5014722;28;43442;-62
2022/06/06 09:48:13;;;;;;;1.60;1.50;;;20.40;60.10;;;;;;5023085;28;43631;-62
2022/06/06 09:51:18;;;;;;;1.63;1.27;;;20.40;60.20;;;;;;5009344;28;43519;-63
2022/06/06 10:00:22;;;;;;;1.67;1.58;;;20.40;60.30;;;;;;5010919;28;43526;-62
2022/06/06 10:03:30;;;;;;;2.00;1.38;;;20.40;60.40;;;;;;5021564;28;44882;-62
2022/06/06 10:06:20;;;;;;;1.75;1.48;;;20.40;60.40;;;;;;5023148;28;44036;-61
2022/06/06 10:09:12;;;;;;;1.50;1.40;;;20.40;60.60;;;;;;5021164;28;43493;-61
2022/06/06 10:11:52;;;;;;;1.90;1.23;;;20.40;60.30;;;;;;5021469;28;43535;-62
2022/06/06 10:14:44;;;;;;;1.30;1.30;;;20.40;60.30;;;;;;5023199;28;43686;-63
2022/06/06 10:17:26;;;;;;;3.47;1.50;;;20.40;60.20;;;;;;5023041;28;44088;-62
2022/06/06 10:20:00;;;;;;;1.60;1.50;;;20.40;60.30;;;;;;5021117;28;43456;-61
2022/06/06 10:23:10;;;;;;;2.65;1.42;;;20.40;60.40;;;;;;5023036;28;43531;-61
2022/06/06 10:26:08;;;;;;;2.08;1.60;;;20.40;60.40;;;;;;4993643;28;43500;-61
2022/06/06 10:28:55;;;;;;;2.10;1.33;;;20.50;60.40;;;;;;5019698;28;44158;-61
2022/06/06 10:31:37;;;;;;;1.52;1.40;;;20.40;60.40;;;;;;5021364;28;43523;-62
2022/06/06 10:34:08;;;;;;;1.65;1.42;;;20.50;60.40;;;;;;5021969;28;43466;-61
2022/06/06 10:36:54;;;;;;;2.00;1.90;;;20.50;60.40;;;;;;5023640;28;43431;-61
2022/06/06 10:39:40;;;;;;;3.05;1.90;;;20.50;60.40;;;;;;5019690;28;44107;-61
2022/06/06 10:42:39;;;;;;;2.90;1.60;;;20.50;60.30;;;;;;5020566;28;43968;-62
2022/06/06 10:45:15;;;;;;;2.20;1.77;;;20.50;60.30;;;;;;5022048;28;43465;-62
2022/06/06 10:48:07;;;;;;;1.92;1.52;;;20.50;60.40;;;;;;5020304;28;43574;-62
2022/06/06 10:54:25;;;;;;;2.53;1.73;;;20.60;60.30;;;;;;4998537;28;43568;-63
2022/06/06 10:57:25;;;;;;;1.58;1.48;;;20.60;60.40;;;;;;5020579;28;43430;-63
2022/06/06 11:00:29;;;;;;;1.63;1.50;;;20.60;60.30;;;;;;5012403;28;43555;-63
2022/06/06 11:03:34;;;;;;;2.25;1.85;;;20.60;60.30;;;;;;5007134;28;44075;-62
2022/06/06 11:06:44;;;;;;;2.00;1.70;;;20.60;60.40;;;;;;5012322;28;44024;-63
2022/06/06 11:09:29;;;;;;;3.03;1.70;;;20.60;60.40;;;;;;5011319;28;43541;-62
2022/06/06 11:12:30;;;;;;;1.63;1.52;;;20.60;60.30;;;;;;5010675;28;43593;-62
2022/06/06 11:15:01;;;;;;;2.80;1.60;;;20.70;60.30;;;;;;5014353;28;44055;-62
2022/06/06 11:18:05;;;;;;;1.83;1.60;;;20.60;60.30;;;;;;5019361;28;43500;-62
2022/06/06 11:20:43;;;;;;;1.40;1.30;;;20.60;60.10;;;;;;5019553;28;43503;-62
2022/06/06 11:23:36;;;;;;;1.95;1.50;;;20.60;60.10;;;;;;5009112;28;43518;-62
2022/06/06 11:26:21;;;;;;;2.65;1.85;;;20.60;60.00;;;;;;5016599;28;44326;-62
2022/06/06 11:28:57;;;;;;;1.80;1.45;;;20.70;60.00;;;;;;5018088;28;43558;-61
2022/06/06 11:31:49;;;;;;;1.90;1.50;;;20.70;59.70;;;;;;5022082;28;43548;-62
2022/06/06 11:34:44;;;;;;;4.00;1.60;;;20.70;59.60;;;;;;5012394;28;43509;-62
2022/06/06 11:37:34;;;;;;;1.80;1.42;;;20.70;59.70;;;;;;5010520;28;44494;-63
2022/06/06 11:40:26;;;;;;;1.65;1.30;;;20.70;59.70;;;;;;5022173;28;43556;-63
2022/06/06 11:43:27;;;;;;;2.05;1.55;;;20.70;59.70;;;;;;5006988;28;43459;-62
2022/06/06 11:46:31;;;;;;;1.80;1.42;;;20.80;59.60;;;;;;5017514;28;43381;-62
2022/06/06 11:49:38;;;;;;;1.92;1.40;;;20.80;59.50;;;;;;5007954;28;44262;-62
2022/06/06 11:52:25;;;;;;;2.15;1.35;;;20.80;59.30;;;;;;5018404;28;43477;-62
2022/06/06 11:55:17;;;;;;;1.48;1.30;;;20.90;59.30;;;;;;5019432;28;43406;-62
2022/06/06 11:57:59;;;;;;;1.98;1.52;;;20.80;59.10;;;;;;5020947;28;43965;-62
2022/06/06 12:00:38;;;;;;;1.77;1.20;;;20.80;59.20;;;;;;5003980;28;44046;-62
2022/06/06 12:03:25;;;;;;;2.50;1.30;;;20.80;59.10;;;;;;5010822;28;43424;-62
2022/06/06 12:06:37;;;;;;;2.50;1.13;;;20.80;59.00;;;;;;5013040;28;43446;-62
2022/06/06 12:09:19;;;;;;;2.88;1.20;;;20.80;58.90;;;;;;4990162;28;43468;-62
2022/06/06 12:11:55;;;;;;;2.55;1.60;;;20.80;58.90;;;;;;5010141;28;44162;-62
2022/06/06 12:14:51;;;;;;;2.10;1.30;;;20.80;58.80;;;;;;5018066;28;43562;-62
2022/06/06 12:17:27;;;;;;;2.90;1.58;;;20.80;58.80;;;;;;5019488;28;43438;-62
2022/06/06 12:20:02;;;;;;;1.30;1.20;;;20.80;58.90;;;;;;5038536;28;43567;-63
2022/06/06 12:22:48;;;;;;;2.25;1.13;;;20.80;59.00;;;;;;5016765;28;44010;-62
2022/06/06 12:25:47;;;;;;;2.22;1.20;;;20.80;58.90;;;;;;5021144;28;43430;-62
2022/06/06 12:28:36;;;;;;;3.05;1.38;;;20.90;58.90;;;;;;5017384;28;43522;-62
2022/06/06 12:31:16;;;;;;;1.08;1.05;;;20.90;58.80;;;;;;5014457;28;43854;-62
2022/06/06 12:34:09;;;;;;;1.40;1.02;;;20.90;58.80;;;;;;5019822;28;44032;-62
2022/06/06 12:36:58;;;;;;;2.30;1.27;;;20.90;58.80;;;;;;5024672;28;43442;-62
2022/06/06 12:39:44;;;;;;;2.33;1.00;;;20.90;58.90;;;;;;5021411;28;43449;-62
2022/06/06 12:42:14;;;;;;;1.20;1.10;;;20.90;58.90;;;;;;5020667;28;43565;-63
2022/06/06 12:44:51;;;;;;;1.77;1.20;;;20.90;58.90;;;;;;5022827;28;45318;-62
2022/06/06 12:47:18;;;;;;;1.63;1.10;;;20.90;58.70;;;;;;5017544;28;43977;-63
2022/06/06 12:49:55;;;;;;;1.85;1.00;;;20.90;58.70;;;;;;5008822;28;43465;-62
2022/06/06 12:52:22;;;;;;;1.48;0.90;;;20.90;58.80;;;;;;5025189;28;43468;-62
2022/06/06 12:55:33;;;;;;;1.60;1.10;;;20.90;58.90;;;;;;5013006;28;43841;-62
2022/06/06 12:58:13;;;;;;;0.93;0.85;;;20.90;59.00;;;;;;5022600;28;43452;-63
2022/06/06 13:04:10;;;;;;;1.33;1.23;;;20.80;59.10;;;;;;5016380;28;43452;-62
2022/06/06 13:07:01;;;;;;;1.70;1.10;;;20.90;59.20;;;;;;5015063;28;44666;-62
2022/06/06 13:10:06;;;;;;;1.23;1.10;;;20.90;59.10;;;;;;5025959;28;43442;-63
2022/06/06 13:13:01;;;;;;;1.95;1.23;;;20.90;59.30;;;;;;5011429;28;44031;-62
2022/06/06 13:16:08;;;;;;;1.63;1.08;;;20.90;59.20;;;;;;5015890;28;43479;-62
2022/06/06 13:18:41;;;;;;;1.80;1.00;;;20.90;59.20;;;;;;5020066;28;43906;-62
2022/06/06 13:21:16;;;;;;;2.70;1.05;;;20.90;59.40;;;;;;5018281;28;43628;-63
2022/06/06 13:24:07;;;;;;;1.40;1.10;;;20.90;59.20;;;;;;5013898;28;43454;-63
2022/06/06 13:26:48;;;;;;;1.50;1.02;;;20.90;59.10;;;;;;5015283;28;43472;-62
2022/06/06 13:29:34;;;;;;;1.40;1.10;;;20.90;59.20;;;;;;5024940;28;44970;-63
2022/06/06 13:32:44;;;;;;;1.20;1.10;;;20.90;59.10;;;;;;5014690;28;44050;-63
2022/06/06 13:35:52;;;;;;;1.27;1.17;;;20.90;59.00;;;;;;5019325;28;43422;-63
2022/06/06 13:38:29;;;;;;;1.10;0.95;;;20.90;59.00;;;;;;5013715;28;43450;-63
2022/06/06 13:41:16;;;;;;;1.90;0.95;;;20.90;59.10;;;;;;5009502;28;43818;-63
2022/06/06 13:44:13;;;;;;;0.95;0.90;;;20.90;59.10;;;;;;5023201;28;43554;-63
2022/06/06 13:46:46;;;;;;;0.85;0.85;;;20.90;59.10;;;;;;5023906;28;43401;-62
2022/06/06 13:49:42;;;;;;;1.77;1.13;;;20.90;59.00;;;;;;5013834;28;43515;-63
2022/06/06 13:52:31;;;;;;;2.22;1.10;;;20.90;59.00;;;;;;5011720;28;44087;-62
2022/06/06 13:55:35;;;;;;;2.40;1.15;;;20.90;59.20;;;;;;5021386;28;44284;-63
2022/06/06 13:58:31;;;;;;;1.63;0.90;;;20.90;59.30;;;;;;5020246;28;43396;-62
2022/06/06 14:01:38;;;;;;;1.23;1.08;;;20.80;59.10;;;;;;5019234;28;43454;-63
2022/06/06 14:04:33;;;;;;;3.42;0.88;;;20.90;59.20;;;;;;5017396;28;44710;-62
2022/06/06 14:07:38;;;;;;;1.48;0.73;;;20.90;59.10;;;;;;5012255;28;43949;-63
2022/06/06 14:10:11;;;;;;;2.15;0.90;;;20.80;59.10;;;;;;5028438;28;43468;-63
2022/06/06 14:12:52;;;;;;;1.35;1.00;;;20.80;59.10;;;;;;5019228;28;44017;-63
2022/06/06 14:15:22;;;;;;;1.13;1.02;;;20.80;59.00;;;;;;5022547;28;44062;-62
2022/06/06 14:18:00;;;;;;;0.90;0.90;;;20.80;59.10;;;;;;5010452;28;44209;-62
2022/06/06 14:20:45;;;;;;;1.60;0.90;;;20.90;59.10;;;;;;5018017;28;43610;-63
2022/06/06 14:23:25;;;;;;;1.05;0.95;;;20.90;59.10;;;;;;5020543;28;43588;-62
2022/06/06 14:26:13;;;;;;;1.80;0.82;;;20.90;59.00;;;;;;5006651;28;45108;-62
2022/06/06 14:28:43;;;;;;;1.10;0.95;;;20.90;59.00;;;;;;5017376;28;43584;-62
2022/06/06 14:31:20;;;;;;;0.70;0.70;;;20.80;59.00;;;;;;5014664;28;44027;-63
2022/06/06 14:33:55;;;;;;;0.85;0.70;;;20.80;59.00;;;;;;5023378;28;43477;-62
2022/06/06 14:36:27;;;;;;;0.80;0.80;;;20.80;58.90;;;;;;5023936;28;45306;-63
2022/06/06 14:38:57;;;;;;;1.30;0.85;;;20.80;59.00;;;;;;5023250;28;43456;-63
2022/06/06 14:41:49;;;;;;;0.73;0.70;;;20.80;59.20;;;;;;5020365;28;43484;-63